sensor_id;sensor_type;location;lat;lon;timestamp;pressure;altitude;pressure_sealevel;temperature;humidity
44457;BME280;30159;49.316;8.558;2023-04-24T00:01:01;99307.22;;;12.64;100.00
44457;BME280;30159;49.316;8.558;2023-04-24T00:03:28;99297.34;;;12.51;100.00
44457;BME280;30159;49.316;8.558;2023-04-24T00:05:55;99295.47;;;12.42;100.00
44457;BME280;30159;49.316;8.558;2023-04-24T00:08:21;99321.69;;;12.42;100.00
44457;BME280;30159;49.316;8.558;2023-04-24T00:10:50;99305.13;;;12.35;100.00
44457;BME280;30159;49.316;8.558;2023-04-24T00:13:18;99317.25;;;12.46;100.00
44457;BME280;30159;49.316;8.558;2023-04-24T00:15:44;99320.59;;;12.52;100.00
44457;BME280;30159;49.316;8.558;2023-04-24T00:18:11;99316.13;;;12.47;100.00
44457;BME280;30159;49.316;8.558;2023-04-24T00:20:37;99310.72;;;12.47;100.00
44457;BME280;30159;49.316;8.558;2023-04-24T00:23:04;99302.63;;;12.47;100.00
44457;BME280;30159;49.316;8.558;2023-04-24T00:25:31;99294.50;;;12.47;100.00
44457;BME280;30159;49.316;8.558;2023-04-24T00:27:59;99296.69;;;12.54;100.00
44457;BME280;30159;49.316;8.558;2023-04-24T00:30:25;99290.50;;;12.53;100.00
44457;BME280;30159;49.316;8.558;2023-04-24T00:32:52;99291.63;;;12.43;100.00
44457;BME280;30159;49.316;8.558;2023-04-24T00:35:19;99290.06;;;12.42;100.00
44457;BME280;30159;49.316;8.558;2023-04-24T00:37:46;99284.28;;;12.35;100.00
44457;BME280;30159;49.316;8.558;2023-04-24T00:40:12;99288.47;;;12.24;100.00
44457;BME280;30159;49.316;8.558;2023-04-24T00:42:39;99300.34;;;12.14;100.00
44457;BME280;30159;49.316;8.558;2023-04-24T00:45:08;99297.03;;;12.17;100.00
44457;BME280;30159;49.316;8.558;2023-04-24T00:47:36;99310.56;;;12.17;100.00
44457;BME280;30159;49.316;8.558;2023-04-24T00:50:02;99313.41;;;12.12;100.00
44457;BME280;30159;49.316;8.558;2023-04-24T00:52:29;99309.28;;;12.15;100.00
44457;BME280;30159;49.316;8.558;2023-04-24T00:54:57;99304.66;;;12.07;100.00
44457;BME280;30159;49.316;8.558;2023-04-24T00:57:25;99320.72;;;12.03;100.00
44457;BME280;30159;49.316;8.558;2023-04-24T00:59:52;99315.13;;;11.99;100.00
44457;BME280;30159;49.316;8.558;2023-04-24T01:02:21;99311.16;;;11.97;100.00
44457;BME280;30159;49.316;8.558;2023-04-24T01:04:50;99312.59;;;11.94;100.00
44457;BME280;30159;49.316;8.558;2023-04-24T01:07:18;99297.47;;;11.93;100.00
44457;BME280;30159;49.316;8.558;2023-04-24T01:09:47;99297.34;;;11.98;100.00
44457;BME280;30159;49.316;8.558;2023-04-24T01:12:16;99296.88;;;12.05;100.00
44457;BME280;30159;49.316;8.558;2023-04-24T01:14:42;99310.53;;;12.09;100.00
44457;BME280;30159;49.316;8.558;2023-04-24T01:17:09;99302.75;;;12.16;100.00
44457;BME280;30159;49.316;8.558;2023-04-24T01:19:37;99295.13;;;12.18;100.00
44457;BME280;30159;49.316;8.558;2023-04-24T01:22:10;99295.75;;;12.15;100.00
44457;BME280;30159;49.316;8.558;2023-04-24T01:24:37;99288.88;;;12.00;100.00
44457;BME280;30159;49.316;8.558;2023-04-24T01:27:04;99302.75;;;11.98;100.00
44457;BME280;30159;49.316;8.558;2023-04-24T01:29:30;99294.94;;;11.97;100.00
44457;BME280;30159;49.316;8.558;2023-04-24T01:31:57;99222.34;;;11.47;100.00
44457;BME280;30159;49.316;8.558;2023-04-24T01:34:23;99287.59;;;11.89;100.00
44457;BME280;30159;49.316;8.558;2023-04-24T01:36:50;99292.38;;;11.92;100.00
44457;BME280;30159;49.316;8.558;2023-04-24T01:39:18;99294.75;;;11.93;100.00
44457;BME280;30159;49.316;8.558;2023-04-24T01:41:45;99292.53;;;11.95;100.00
44457;BME280;30159;49.316;8.558;2023-04-24T01:44:12;99287.13;;;11.95;100.00
44457;BME280;30159;49.316;8.558;2023-04-24T01:46:39;99290.66;;;11.96;100.00
44457;BME280;30159;49.316;8.558;2023-04-24T01:49:06;99292.88;;;12.02;100.00
44457;BME280;30159;49.316;8.558;2023-04-24T01:51:32;99280.47;;;12.01;100.00
44457;BME280;30159;49.316;8.558;2023-04-24T01:53:59;99275.41;;;12.09;100.00
44457;BME280;30159;49.316;8.558;2023-04-24T01:56:29;99267.13;;;11.96;100.00
44457;BME280;30159;49.316;8.558;2023-04-24T01:58:56;99272.34;;;11.93;100.00
44457;BME280;30159;49.316;8.558;2023-04-24T02:01:23;99274.41;;;11.87;100.00
44457;BME280;30159;49.316;8.558;2023-04-24T02:03:50;99269.44;;;11.80;100.00
44457;BME280;30159;49.316;8.558;2023-04-24T02:06:17;99279.13;;;11.81;100.00
44457;BME280;30159;49.316;8.558;2023-04-24T02:08:43;99278.81;;;11.83;100.00
44457;BME280;30159;49.316;8.558;2023-04-24T02:11:10;99286.78;;;11.79;100.00
44457;BME280;30159;49.316;8.558;2023-04-24T02:13:38;99289.16;;;11.81;100.00
44457;BME280;30159;49.316;8.558;2023-04-24T02:16:04;99288.53;;;11.84;100.00
44457;BME280;30159;49.316;8.558;2023-04-24T02:18:31;99276.00;;;11.88;100.00
44457;BME280;30159;49.316;8.558;2023-04-24T02:20:57;99105.31;;;10.76;100.00
44457;BME280;30159;49.316;8.558;2023-04-24T02:23:24;99276.44;;;11.81;100.00
44457;BME280;30159;49.316;8.558;2023-04-24T02:25:52;99272.78;;;11.86;100.00
44457;BME280;30159;49.316;8.558;2023-04-24T02:28:19;99269.63;;;11.84;100.00
44457;BME280;30159;49.316;8.558;2023-04-24T02:30:47;99267.22;;;11.82;100.00
44457;BME280;30159;49.316;8.558;2023-04-24T02:33:13;99269.13;;;11.73;100.00
44457;BME280;30159;49.316;8.558;2023-04-24T02:35:40;99276.56;;;11.68;100.00
44457;BME280;30159;49.316;8.558;2023-04-24T02:38:07;99281.34;;;11.71;100.00
44457;BME280;30159;49.316;8.558;2023-04-24T02:40:33;99284.69;;;11.76;100.00
44457;BME280;30159;49.316;8.558;2023-04-24T02:43:00;99271.84;;;11.82;100.00
44457;BME280;30159;49.316;8.558;2023-04-24T02:45:26;99293.34;;;11.87;100.00
44457;BME280;30159;49.316;8.558;2023-04-24T02:47:54;99290.47;;;11.92;100.00
44457;BME280;30159;49.316;8.558;2023-04-24T02:50:20;99287.78;;;11.92;100.00
44457;BME280;30159;49.316;8.558;2023-04-24T02:52:47;99285.72;;;11.98;100.00
44457;BME280;30159;49.316;8.558;2023-04-24T02:55:13;99290.97;;;12.03;100.00
44457;BME280;30159;49.316;8.558;2023-04-24T02:57:40;99294.78;;;12.11;100.00
44457;BME280;30159;49.316;8.558;2023-04-24T03:00:07;99304.34;;;12.17;100.00
44457;BME280;30159;49.316;8.558;2023-04-24T03:02:34;99296.22;;;12.08;100.00
44457;BME280;30159;49.316;8.558;2023-04-24T03:05:02;99313.06;;;12.14;100.00
44457;BME280;30159;49.316;8.558;2023-04-24T03:07:29;99322.63;;;12.11;100.00
44457;BME280;30159;49.316;8.558;2023-04-24T03:09:56;99336.94;;;12.03;100.00
44457;BME280;30159;49.316;8.558;2023-04-24T03:12:23;99341.38;;;11.99;100.00
44457;BME280;30159;49.316;8.558;2023-04-24T03:14:50;99348.09;;;11.79;100.00
44457;BME280;30159;49.316;8.558;2023-04-24T03:17:16;99348.22;;;11.65;100.00
44457;BME280;30159;49.316;8.558;2023-04-24T03:19:43;99280.16;;;11.06;100.00
44457;BME280;30159;49.316;8.558;2023-04-24T03:22:11;99344.19;;;11.45;100.00
44457;BME280;30159;49.316;8.558;2023-04-24T03:24:37;99337.66;;;11.46;100.00
44457;BME280;30159;49.316;8.558;2023-04-24T03:27:04;99339.72;;;11.41;100.00
44457;BME280;30159;49.316;8.558;2023-04-24T03:29:30;99341.13;;;11.38;100.00
44457;BME280;30159;49.316;8.558;2023-04-24T03:31:57;99338.44;;;11.47;100.00
44457;BME280;30159;49.316;8.558;2023-04-24T03:34:23;99306.19;;;11.42;100.00
44457;BME280;30159;49.316;8.558;2023-04-24T03:36:50;99337.50;;;11.51;100.00
44457;BME280;30159;49.316;8.558;2023-04-24T03:39:19;99329.91;;;11.53;100.00
44457;BME280;30159;49.316;8.558;2023-04-24T03:41:45;99341.81;;;11.52;100.00
44457;BME280;30159;49.316;8.558;2023-04-24T03:44:12;99348.28;;;11.43;100.00
44457;BME280;30159;49.316;8.558;2023-04-24T03:46:38;99344.91;;;11.37;100.00
44457;BME280;30159;49.316;8.558;2023-04-24T03:49:05;99344.56;;;11.30;100.00
44457;BME280;30159;49.316;8.558;2023-04-24T03:51:31;99344.72;;;11.25;100.00
44457;BME280;30159;49.316;8.558;2023-04-24T03:53:58;99378.69;;;11.26;100.00
44457;BME280;30159;49.316;8.558;2023-04-24T03:56:26;99358.97;;;11.16;100.00
44457;BME280;30159;49.316;8.558;2023-04-24T03:58:52;99369.38;;;11.09;100.00
44457;BME280;30159;49.316;8.558;2023-04-24T04:01:19;99375.81;;;11.00;100.00
44457;BME280;30159;49.316;8.558;2023-04-24T04:03:46;99376.38;;;10.88;100.00
44457;BME280;30159;49.316;8.558;2023-04-24T04:06:12;99384.09;;;10.81;100.00
44457;BME280;30159;49.316;8.558;2023-04-24T04:08:39;99394.09;;;10.80;100.00
44457;BME280;30159;49.316;8.558;2023-04-24T04:11:05;99381.66;;;10.70;100.00
44457;BME280;30159;49.316;8.558;2023-04-24T04:13:33;99387.47;;;10.64;100.00
44457;BME280;30159;49.316;8.558;2023-04-24T04:16:00;99385.47;;;10.55;100.00
44457;BME280;30159;49.316;8.558;2023-04-24T04:18:26;99406.97;;;10.47;100.00
44457;BME280;30159;49.316;8.558;2023-04-24T04:20:53;99409.97;;;10.45;100.00
44457;BME280;30159;49.316;8.558;2023-04-24T04:23:19;99414.19;;;10.38;100.00
44457;BME280;30159;49.316;8.558;2023-04-24T04:25:46;99403.31;;;10.29;100.00
44457;BME280;30159;49.316;8.558;2023-04-24T04:28:13;99431.75;;;10.35;100.00
44457;BME280;30159;49.316;8.558;2023-04-24T04:30:42;99419.19;;;10.30;100.00
44457;BME280;30159;49.316;8.558;2023-04-24T04:33:08;99425.66;;;10.29;100.00
44457;BME280;30159;49.316;8.558;2023-04-24T04:35:35;99434.88;;;10.28;100.00
44457;BME280;30159;49.316;8.558;2023-04-24T04:38:02;99443.13;;;10.32;100.00
44457;BME280;30159;49.316;8.558;2023-04-24T04:40:29;99449.03;;;10.34;100.00
44457;BME280;30159;49.316;8.558;2023-04-24T04:42:56;99449.22;;;10.38;100.00
44457;BME280;30159;49.316;8.558;2023-04-24T04:45:23;99452.88;;;10.28;100.00
44457;BME280;30159;49.316;8.558;2023-04-24T04:47:53;99452.50;;;10.34;100.00
44457;BME280;30159;49.316;8.558;2023-04-24T04:50:21;99452.81;;;10.47;100.00
44457;BME280;30159;49.316;8.558;2023-04-24T04:52:48;99455.28;;;10.57;100.00
44457;BME280;30159;49.316;8.558;2023-04-24T04:55:14;99453.09;;;10.59;100.00
44457;BME280;30159;49.316;8.558;2023-04-24T04:57:41;99440.81;;;10.53;100.00
44457;BME280;30159;49.316;8.558;2023-04-24T05:00:08;99421.75;;;10.49;100.00
44457;BME280;30159;49.316;8.558;2023-04-24T05:02:37;99449.91;;;10.93;100.00
44457;BME280;30159;49.316;8.558;2023-04-24T05:05:05;99443.22;;;11.36;100.00
44457;BME280;30159;49.316;8.558;2023-04-24T05:07:32;99445.16;;;11.67;100.00
44457;BME280;30159;49.316;8.558;2023-04-24T05:09:59;99373.88;;;11.45;100.00
44457;BME280;30159;49.316;8.558;2023-04-24T05:12:25;99450.59;;;12.07;100.00
44457;BME280;30159;49.316;8.558;2023-04-24T05:14:52;99454.50;;;12.32;100.00
44457;BME280;30159;49.316;8.558;2023-04-24T05:17:19;99462.53;;;13.24;100.00
44457;BME280;30159;49.316;8.558;2023-04-24T05:19:45;99457.16;;;13.97;100.00
44457;BME280;30159;49.316;8.558;2023-04-24T05:22:14;99452.22;;;14.80;96.55
44457;BME280;30159;49.316;8.558;2023-04-24T05:24:42;99464.41;;;14.44;95.52
44457;BME280;30159;49.316;8.558;2023-04-24T05:27:09;99466.94;;;13.81;97.69
44457;BME280;30159;49.316;8.558;2023-04-24T05:29:35;99459.38;;;13.31;100.00
44457;BME280;30159;49.316;8.558;2023-04-24T05:32:02;99468.00;;;13.88;100.00
44457;BME280;30159;49.316;8.558;2023-04-24T05:34:28;99453.56;;;15.49;92.17
44457;BME280;30159;49.316;8.558;2023-04-24T05:36:55;99477.34;;;16.96;82.43
44457;BME280;30159;49.316;8.558;2023-04-24T05:39:23;99478.59;;;17.26;76.15
44457;BME280;30159;49.316;8.558;2023-04-24T05:41:50;99482.09;;;17.27;77.79
44457;BME280;30159;49.316;8.558;2023-04-24T05:44:16;99489.28;;;16.54;77.78
44457;BME280;30159;49.316;8.558;2023-04-24T05:46:43;99476.72;;;15.67;80.68
44457;BME280;30159;49.316;8.558;2023-04-24T05:49:10;99484.81;;;14.80;88.41
44457;BME280;30159;49.316;8.558;2023-04-24T05:51:36;99478.38;;;16.05;86.10
44457;BME280;30159;49.316;8.558;2023-04-24T05:54:04;99477.56;;;17.75;77.94
44457;BME280;30159;49.316;8.558;2023-04-24T05:56:32;99492.22;;;19.17;67.75
44457;BME280;30159;49.316;8.558;2023-04-24T05:58:59;99493.84;;;20.26;65.88
44457;BME280;30159;49.316;8.558;2023-04-24T06:01:25;99499.19;;;19.14;65.91
44457;BME280;30159;49.316;8.558;2023-04-24T06:03:52;99479.00;;;18.01;68.73
44457;BME280;30159;49.316;8.558;2023-04-24T06:06:19;99514.16;;;16.53;73.84
44457;BME280;30159;49.316;8.558;2023-04-24T06:08:45;99511.94;;;15.43;79.96
44457;BME280;30159;49.316;8.558;2023-04-24T06:11:12;99514.22;;;15.20;81.57
44457;BME280;30159;49.316;8.558;2023-04-24T06:13:39;99514.38;;;15.02;83.18
44457;BME280;30159;49.316;8.558;2023-04-24T06:16:06;99512.88;;;14.63;85.11
44457;BME280;30159;49.316;8.558;2023-04-24T06:18:33;99511.16;;;14.11;87.86
44457;BME280;30159;49.316;8.558;2023-04-24T06:20:59;99507.75;;;13.76;92.31
44457;BME280;30159;49.316;8.558;2023-04-24T06:23:26;99525.47;;;13.64;94.83
44457;BME280;30159;49.316;8.558;2023-04-24T06:25:52;99511.94;;;13.64;95.71
44457;BME280;30159;49.316;8.558;2023-04-24T06:28:19;99504.75;;;13.51;97.31
44457;BME280;30159;49.316;8.558;2023-04-24T06:30:47;99523.00;;;13.89;95.18
44457;BME280;30159;49.316;8.558;2023-04-24T06:33:13;99525.00;;;13.71;95.78
44457;BME280;30159;49.316;8.558;2023-04-24T06:35:40;99522.09;;;13.67;97.93
44457;BME280;30159;49.316;8.558;2023-04-24T06:38:06;99541.25;;;13.62;96.99
44457;BME280;30159;49.316;8.558;2023-04-24T06:40:33;99538.88;;;14.17;97.52
44457;BME280;30159;49.316;8.558;2023-04-24T06:42:59;99532.13;;;15.21;92.17
44457;BME280;30159;49.316;8.558;2023-04-24T06:45:27;99540.13;;;16.62;83.91
44457;BME280;30159;49.316;8.558;2023-04-24T06:47:55;99535.09;;;17.01;79.96
44457;BME280;30159;49.316;8.558;2023-04-24T06:50:23;99538.91;;;16.02;82.32
44457;BME280;30159;49.316;8.558;2023-04-24T06:52:50;99529.44;;;16.20;81.23
44457;BME280;30159;49.316;8.558;2023-04-24T06:55:17;99531.38;;;16.94;78.67
44457;BME280;30159;49.316;8.558;2023-04-24T06:57:43;99534.91;;;16.57;77.44
44457;BME280;30159;49.316;8.558;2023-04-24T07:00:11;99540.22;;;15.29;81.65
44457;BME280;30159;49.316;8.558;2023-04-24T07:02:38;99538.94;;;14.55;87.17
44457;BME280;30159;49.316;8.558;2023-04-24T07:05:06;99539.44;;;14.01;92.26
44457;BME280;30159;49.316;8.558;2023-04-24T07:07:33;99543.66;;;13.55;96.81
44457;BME280;30159;49.316;8.558;2023-04-24T07:10:03;99549.66;;;13.26;98.94
44457;BME280;30159;49.316;8.558;2023-04-24T07:12:30;99561.63;;;12.50;100.00
44457;BME280;30159;49.316;8.558;2023-04-24T07:14:57;99552.91;;;12.22;100.00
44457;BME280;30159;49.316;8.558;2023-04-24T07:17:24;99578.94;;;11.87;100.00
44457;BME280;30159;49.316;8.558;2023-04-24T07:19:50;99574.44;;;11.59;100.00
44457;BME280;30159;49.316;8.558;2023-04-24T07:22:18;99579.59;;;11.47;100.00
44457;BME280;30159;49.316;8.558;2023-04-24T07:24:45;99586.09;;;11.69;100.00
44457;BME280;30159;49.316;8.558;2023-04-24T07:27:11;99587.22;;;12.13;100.00
44457;BME280;30159;49.316;8.558;2023-04-24T07:29:40;99589.75;;;12.40;100.00
44457;BME280;30159;49.316;8.558;2023-04-24T07:32:06;99588.38;;;12.52;100.00
44457;BME280;30159;49.316;8.558;2023-04-24T07:34:34;99576.53;;;12.39;100.00
44457;BME280;30159;49.316;8.558;2023-04-24T07:37:01;99585.72;;;12.29;100.00
44457;BME280;30159;49.316;8.558;2023-04-24T07:39:29;99588.66;;;12.19;99.96
44457;BME280;30159;49.316;8.558;2023-04-24T07:41:56;99596.34;;;12.26;99.42
44457;BME280;30159;49.316;8.558;2023-04-24T07:44:23;99597.25;;;12.21;98.24
44457;BME280;30159;49.316;8.558;2023-04-24T07:46:50;99606.22;;;12.30;97.35
44457;BME280;30159;49.316;8.558;2023-04-24T07:49:17;99601.91;;;12.52;96.40
44457;BME280;30159;49.316;8.558;2023-04-24T07:51:44;99608.78;;;12.67;94.30
44457;BME280;30159;49.316;8.558;2023-04-24T07:54:11;99606.00;;;12.89;91.23
44457;BME280;30159;49.316;8.558;2023-04-24T07:56:38;99610.69;;;13.23;91.98
44457;BME280;30159;49.316;8.558;2023-04-24T07:59:06;99605.97;;;13.29;90.08
44457;BME280;30159;49.316;8.558;2023-04-24T08:01:33;99616.66;;;13.43;91.48
44457;BME280;30159;49.316;8.558;2023-04-24T08:03:59;99610.59;;;13.55;89.72
44457;BME280;30159;49.316;8.558;2023-04-24T08:06:26;99586.19;;;13.46;90.33
44457;BME280;30159;49.316;8.558;2023-04-24T08:08:55;99608.19;;;13.70;91.80
44457;BME280;30159;49.316;8.558;2023-04-24T08:11:22;99609.00;;;13.71;92.48
44457;BME280;30159;49.316;8.558;2023-04-24T08:13:49;99609.00;;;13.71;88.48
44457;BME280;30159;49.316;8.558;2023-04-24T08:16:16;99605.28;;;14.10;88.63
44457;BME280;30159;49.316;8.558;2023-04-24T08:18:42;99604.31;;;14.71;87.46
44457;BME280;30159;49.316;8.558;2023-04-24T08:21:09;99576.75;;;14.51;82.82
44457;BME280;30159;49.316;8.558;2023-04-24T08:23:38;99615.06;;;14.50;81.31
44457;BME280;30159;49.316;8.558;2023-04-24T08:26:04;99610.16;;;14.34;82.08
44457;BME280;30159;49.316;8.558;2023-04-24T08:28:32;99634.94;;;14.16;82.10
44457;BME280;30159;49.316;8.558;2023-04-24T08:31:00;99647.88;;;13.84;79.64
44457;BME280;30159;49.316;8.558;2023-04-24T08:33:26;99647.25;;;13.43;79.42
44457;BME280;30159;49.316;8.558;2023-04-24T08:35:59;99646.25;;;13.31;83.36
44457;BME280;30159;49.316;8.558;2023-04-24T08:38:26;99649.47;;;13.41;83.12
44457;BME280;30159;49.316;8.558;2023-04-24T08:40:52;99653.63;;;13.56;83.65
44457;BME280;30159;49.316;8.558;2023-04-24T08:43:21;99653.78;;;13.51;81.90
44457;BME280;30159;49.316;8.558;2023-04-24T08:45:48;99652.19;;;13.67;83.41
44457;BME280;30159;49.316;8.558;2023-04-24T08:48:16;99650.44;;;13.72;82.05
44457;BME280;30159;49.316;8.558;2023-04-24T08:50:44;99647.25;;;13.96;80.67
44457;BME280;30159;49.316;8.558;2023-04-24T08:53:11;99643.75;;;14.04;81.70
44457;BME280;30159;49.316;8.558;2023-04-24T08:55:37;99662.06;;;14.07;78.99
44457;BME280;30159;49.316;8.558;2023-04-24T08:58:04;99666.69;;;13.98;78.94
44457;BME280;30159;49.316;8.558;2023-04-24T09:00:31;99668.44;;;14.20;80.19
44457;BME280;30159;49.316;8.558;2023-04-24T09:03:00;99676.78;;;14.70;77.98
44457;BME280;30159;49.316;8.558;2023-04-24T09:05:29;99668.91;;;14.86;74.21
44457;BME280;30159;49.316;8.558;2023-04-24T09:07:56;99666.41;;;14.72;74.72
44457;BME280;30159;49.316;8.558;2023-04-24T09:10:24;99677.31;;;14.46;75.75
44457;BME280;30159;49.316;8.558;2023-04-24T09:12:51;99687.53;;;14.67;77.07
44457;BME280;30159;49.316;8.558;2023-04-24T09:15:18;99688.31;;;14.67;73.90
44457;BME280;30159;49.316;8.558;2023-04-24T09:17:45;99678.75;;;14.61;71.31
44457;BME280;30159;49.316;8.558;2023-04-24T09:20:12;99675.09;;;14.48;72.82
44457;BME280;30159;49.316;8.558;2023-04-24T09:22:42;99689.28;;;14.54;71.24
44457;BME280;30159;49.316;8.558;2023-04-24T09:25:09;99689.41;;;14.75;72.19
44457;BME280;30159;49.316;8.558;2023-04-24T09:27:41;99682.69;;;14.72;71.58
44457;BME280;30159;49.316;8.558;2023-04-24T09:30:08;99664.44;;;14.26;74.41
44457;BME280;30159;49.316;8.558;2023-04-24T09:32:35;99701.56;;;14.43;74.94
44457;BME280;30159;49.316;8.558;2023-04-24T09:35:07;99708.63;;;14.35;74.60
44457;BME280;30159;49.316;8.558;2023-04-24T09:37:35;99706.41;;;14.20;75.09
44457;BME280;30159;49.316;8.558;2023-04-24T09:40:11;99699.03;;;14.38;76.14
44457;BME280;30159;49.316;8.558;2023-04-24T09:42:38;99703.34;;;14.56;74.80
44457;BME280;30159;49.316;8.558;2023-04-24T09:45:08;99687.84;;;14.65;72.81
44457;BME280;30159;49.316;8.558;2023-04-24T09:47:36;99687.66;;;14.70;74.85
44457;BME280;30159;49.316;8.558;2023-04-24T09:50:09;99715.38;;;14.93;73.43
44457;BME280;30159;49.316;8.558;2023-04-24T09:52:39;99711.25;;;14.87;72.01
44457;BME280;30159;49.316;8.558;2023-04-24T09:55:15;99713.88;;;15.05;73.22
44457;BME280;30159;49.316;8.558;2023-04-24T09:57:53;99723.66;;;15.35;71.92
44457;BME280;30159;49.316;8.558;2023-04-24T10:00:24;99722.16;;;15.47;69.86
44457;BME280;30159;49.316;8.558;2023-04-24T10:02:55;99721.78;;;15.27;69.25
44457;BME280;30159;49.316;8.558;2023-04-24T10:05:23;99703.31;;;14.65;69.26
44457;BME280;30159;49.316;8.558;2023-04-24T10:07:51;99724.88;;;14.70;70.16
44457;BME280;30159;49.316;8.558;2023-04-24T10:10:19;99719.41;;;14.79;72.12
44457;BME280;30159;49.316;8.558;2023-04-24T10:12:45;99732.72;;;14.54;71.08
44457;BME280;30159;49.316;8.558;2023-04-24T10:15:13;99723.31;;;14.34;73.81
44457;BME280;30159;49.316;8.558;2023-04-24T10:17:40;99740.38;;;13.74;72.57
44457;BME280;30159;49.316;8.558;2023-04-24T10:20:07;99741.88;;;13.40;74.22
44457;BME280;30159;49.316;8.558;2023-04-24T10:22:35;99751.50;;;13.23;78.20
44457;BME280;30159;49.316;8.558;2023-04-24T10:25:04;99766.75;;;13.11;79.89
44457;BME280;30159;49.316;8.558;2023-04-24T10:27:34;99761.94;;;13.07;79.79
44457;BME280;30159;49.316;8.558;2023-04-24T10:30:01;99756.31;;;13.26;81.45
44457;BME280;30159;49.316;8.558;2023-04-24T10:32:28;99757.03;;;13.41;81.00
44457;BME280;30159;49.316;8.558;2023-04-24T10:34:55;99773.63;;;13.48;81.13
44457;BME280;30159;49.316;8.558;2023-04-24T10:37:22;99772.63;;;13.44;80.63
44457;BME280;30159;49.316;8.558;2023-04-24T10:39:49;99739.56;;;13.24;82.82
44457;BME280;30159;49.316;8.558;2023-04-24T10:42:19;99723.63;;;13.23;82.01
44457;BME280;30159;49.316;8.558;2023-04-24T10:44:48;99770.78;;;13.70;83.59
44457;BME280;30159;49.316;8.558;2023-04-24T10:47:15;99778.38;;;14.08;80.31
44457;BME280;30159;49.316;8.558;2023-04-24T10:49:42;99771.97;;;14.39;82.73
44457;BME280;30159;49.316;8.558;2023-04-24T10:52:09;99774.13;;;14.98;81.26
44457;BME280;30159;49.316;8.558;2023-04-24T10:54:41;99768.78;;;15.57;77.74
44457;BME280;30159;49.316;8.558;2023-04-24T10:57:28;99769.69;;;15.70;75.96
44457;BME280;30159;49.316;8.558;2023-04-24T11:00:18;99772.59;;;15.95;73.20
44457;BME280;30159;49.316;8.558;2023-04-24T11:02:46;99774.22;;;16.50;73.33
44457;BME280;30159;49.316;8.558;2023-04-24T11:05:15;99768.06;;;16.20;71.49
44457;BME280;30159;49.316;8.558;2023-04-24T11:08:11;99773.22;;;15.92;70.66
44457;BME280;30159;49.316;8.558;2023-04-24T11:10:39;99630.16;;;15.36;71.79
44457;BME280;30159;49.316;8.558;2023-04-24T11:13:06;99763.50;;;16.12;71.54
44457;BME280;30159;49.316;8.558;2023-04-24T11:15:34;99758.78;;;15.79;72.01
44457;BME280;30159;49.316;8.558;2023-04-24T11:18:01;99778.41;;;15.85;73.83
44457;BME280;30159;49.316;8.558;2023-04-24T11:20:28;99773.19;;;16.00;70.69
44457;BME280;30159;49.316;8.558;2023-04-24T11:22:55;99765.38;;;15.69;70.96
44457;BME280;30159;49.316;8.558;2023-04-24T11:25:23;99781.03;;;15.72;71.44
44457;BME280;30159;49.316;8.558;2023-04-24T11:27:50;99778.56;;;15.50;72.67
44457;BME280;30159;49.316;8.558;2023-04-24T11:30:29;99756.94;;;15.24;70.99
44457;BME280;30159;49.316;8.558;2023-04-24T11:33:01;99778.44;;;15.46;72.10
44457;BME280;30159;49.316;8.558;2023-04-24T11:35:29;99783.03;;;15.16;71.11
44457;BME280;30159;49.316;8.558;2023-04-24T11:37:56;99794.66;;;15.25;70.53
44457;BME280;30159;49.316;8.558;2023-04-24T11:40:23;99783.59;;;15.39;69.67
44457;BME280;30159;49.316;8.558;2023-04-24T11:42:52;99792.91;;;15.59;68.95
44457;BME280;30159;49.316;8.558;2023-04-24T11:45:22;99782.97;;;15.72;67.45
44457;BME280;30159;49.316;8.558;2023-04-24T11:47:50;99797.03;;;15.74;67.42
44457;BME280;30159;49.316;8.558;2023-04-24T11:50:21;99793.00;;;16.01;70.09
44457;BME280;30159;49.316;8.558;2023-04-24T11:52:49;99799.81;;;16.16;68.75
44457;BME280;30159;49.316;8.558;2023-04-24T11:55:26;99797.47;;;16.06;67.22
44457;BME280;30159;49.316;8.558;2023-04-24T11:57:54;99799.78;;;15.95;67.96
44457;BME280;30159;49.316;8.558;2023-04-24T12:00:24;99796.19;;;15.82;67.59
44457;BME280;30159;49.316;8.558;2023-04-24T12:02:59;99799.88;;;15.77;66.49
44457;BME280;30159;49.316;8.558;2023-04-24T12:05:30;99799.53;;;15.11;66.78
44457;BME280;30159;49.316;8.558;2023-04-24T12:07:57;99792.00;;;15.08;68.67
44457;BME280;30159;49.316;8.558;2023-04-24T12:10:25;99804.78;;;15.16;70.29
44457;BME280;30159;49.316;8.558;2023-04-24T12:12:52;99798.56;;;15.07;68.03
44457;BME280;30159;49.316;8.558;2023-04-24T12:15:19;99802.81;;;15.25;67.74
44457;BME280;30159;49.316;8.558;2023-04-24T12:17:47;99798.06;;;15.52;67.78
44457;BME280;30159;49.316;8.558;2023-04-24T12:20:14;99801.78;;;15.86;65.89
44457;BME280;30159;49.316;8.558;2023-04-24T12:22:46;99815.84;;;15.88;65.34
44457;BME280;30159;49.316;8.558;2023-04-24T12:25:14;99802.78;;;15.72;67.49
44457;BME280;30159;49.316;8.558;2023-04-24T12:27:41;99800.00;;;15.90;68.34
44457;BME280;30159;49.316;8.558;2023-04-24T12:30:11;99804.00;;;15.84;66.73
44457;BME280;30159;49.316;8.558;2023-04-24T12:32:41;99804.09;;;15.96;66.51
44457;BME280;30159;49.316;8.558;2023-04-24T12:35:08;99796.81;;;16.09;65.06
44457;BME280;30159;49.316;8.558;2023-04-24T12:37:35;99794.25;;;15.83;65.13
44457;BME280;30159;49.316;8.558;2023-04-24T12:40:05;99795.63;;;15.59;67.35
44457;BME280;30159;49.316;8.558;2023-04-24T12:42:33;99791.94;;;15.93;69.39
44457;BME280;30159;49.316;8.558;2023-04-24T12:45:01;99792.63;;;15.90;67.28
44457;BME280;30159;49.316;8.558;2023-04-24T12:47:29;99810.03;;;15.89;67.74
44457;BME280;30159;49.316;8.558;2023-04-24T12:49:56;99774.75;;;15.51;66.41
44457;BME280;30159;49.316;8.558;2023-04-24T12:52:23;99774.75;;;15.51;67.05
44457;BME280;30159;49.316;8.558;2023-04-24T12:54:52;99793.34;;;15.70;66.03
44457;BME280;30159;49.316;8.558;2023-04-24T12:57:21;99779.16;;;15.64;66.73